Time;durP1;ratioP1;P1;durP2;ratioP2;P2;SDS_P1;SDS_P2;PMS_P1;PMS_P2;Temp;Humidity;BMP_temperature;BMP_pressure;BME280_temperature;BME280_humidity;BME280_pressure;Samples;Min_cycle;Max_cycle;Signal;HPM_P1;HPM_P2
2021/04/19 00:00:34;;;;;;;13.32;7.90;;;;;;;9.05;86.70;100897.77;1763326;81;21596;-51
2021/04/19 00:03:01;;;;;;;11.57;7.80;;;;;;;9.05;87.77;100903.12;1783053;80;21063;-51
2021/04/19 00:05:29;;;;;;;12.20;7.03;;;;;;;9.03;87.70;100890.25;1763376;81;21366;-51
2021/04/19 00:07:58;;;;;;;11.88;7.17;;;;;;;9.04;88.18;100897.36;1794667;80;21073;-51
2021/04/19 00:10:25;;;;;;;20.23;8.78;;;;;;;9.02;88.55;100900.53;1782961;80;21134;-51
2021/04/19 00:12:53;;;;;;;12.68;7.72;;;;;;;8.99;88.81;100895.27;1763369;81;21148;-51
2021/04/19 00:15:21;;;;;;;11.30;7.22;;;;;;;8.98;89.24;100900.20;1782985;80;21189;-52
2021/04/19 00:17:50;;;;;;;12.80;7.75;;;;;;;8.98;89.74;100900.20;1763393;81;21126;-52
2021/04/19 00:20:20;;;;;;;10.60;6.87;;;;;;;8.99;90.13;100894.79;1782916;80;21150;-51
2021/04/19 00:22:48;;;;;;;13.60;8.08;;;;;;;9.01;90.36;100904.13;1763288;81;21051;-51
2021/04/19 00:25:17;;;;;;;11.90;7.85;;;;;;;9.02;90.64;100900.53;1783016;80;21102;-51
2021/04/19 00:27:44;;;;;;;17.80;7.85;;;;;;;9.02;90.87;100896.05;1763415;81;21541;-51
2021/04/19 00:30:14;;;;;;;15.65;7.25;;;;;;;9.05;91.03;100901.78;1782950;80;21525;-51
2021/04/19 00:32:41;;;;;;;14.45;7.30;;;;;;;9.06;91.02;100901.31;1763183;81;21116;-51
2021/04/19 00:35:11;;;;;;;16.10;8.40;;;;;;;9.09;90.91;100899.44;1782970;80;21083;-51
2021/04/19 00:37:39;;;;;;;12.55;7.67;;;;;;;9.10;90.89;100901.20;1763229;81;21486;-51
2021/04/19 00:40:11;;;;;;;14.43;8.05;;;;;;;9.12;90.78;100894.48;1782998;80;21122;-51
2021/04/19 00:42:39;;;;;;;12.90;7.58;;;;;;;9.14;90.71;100897.52;1763345;81;21694;-51
2021/04/19 00:45:08;;;;;;;10.08;6.92;;;;;;;9.15;90.71;100895.26;1750892;81;21443;-51
2021/04/19 00:47:36;;;;;;;16.87;7.47;;;;;;;9.16;90.75;100887.66;1757559;81;21136;-51
2021/04/19 00:50:08;;;;;;;15.72;8.20;;;;;;;9.16;90.72;100888.98;1769042;80;21548;-52
2021/04/19 00:52:35;;;;;;;10.78;6.92;;;;;;;9.17;90.81;100885.42;1757576;81;21106;-51
2021/04/19 00:55:09;;;;;;;11.53;7.15;;;;;;;9.17;90.78;100880.07;1768994;81;21617;-51
2021/04/19 00:57:37;;;;;;;15.95;7.67;;;;;;;9.18;90.64;100879.59;1759035;81;21560;-51
2021/04/19 01:00:10;;;;;;;10.98;7.33;;;;;;;9.19;90.39;100885.84;1790963;80;21104;-51
2021/04/19 01:02:41;;;;;;;11.75;7.40;;;;;;;9.20;90.17;100874.22;1791079;80;21164;-51
2021/04/19 01:05:20;;;;;;;13.83;7.67;;;;;;;9.21;90.22;100877.31;1790977;80;21049;-51
2021/04/19 01:07:48;;;;;;;15.78;8.18;;;;;;;9.22;90.08;100871.04;1791073;80;21409;-51
2021/04/19 01:10:16;;;;;;;9.98;6.90;;;;;;;9.25;89.62;100866.94;1790879;80;21124;-50
2021/04/19 01:12:43;;;;;;;12.93;7.50;;;;;;;9.25;89.00;100867.80;1791028;80;21159;-51
2021/04/19 01:15:15;;;;;;;11.63;7.25;;;;;;;9.27;88.64;100870.45;1791015;80;21164;-51
2021/04/19 01:17:43;;;;;;;14.05;7.70;;;;;;;9.27;88.42;100868.63;1790983;80;21164;-51
2021/04/19 01:20:18;;;;;;;13.08;7.37;;;;;;;9.28;88.60;100873.09;1790990;80;21422;-51
2021/04/19 01:22:45;;;;;;;13.75;7.42;;;;;;;9.27;88.69;100865.09;1791017;80;21096;-50
2021/04/19 01:25:17;;;;;;;16.52;8.63;;;;;;;9.27;88.95;100863.28;1790965;80;21149;-50
2021/04/19 01:27:44;;;;;;;14.55;7.83;;;;;;;9.27;89.13;100864.62;1790936;80;21116;-51
2021/04/19 01:30:16;;;;;;;23.07;9.13;;;;;;;9.28;89.21;100873.09;1791073;80;21058;-51
2021/04/19 01:32:43;;;;;;;12.15;8.00;;;;;;;9.30;89.14;100871.69;1790855;80;21368;-51
2021/04/19 01:35:13;;;;;;;16.95;8.65;;;;;;;9.29;89.10;100870.83;1790931;80;21144;-51
2021/04/19 01:37:41;;;;;;;11.28;7.95;;;;;;;9.29;89.24;100869.94;1791028;80;21133;-51
2021/04/19 01:40:13;;;;;;;18.85;8.30;;;;;;;9.28;89.51;100872.20;1790975;80;21041;-51
2021/04/19 01:42:40;;;;;;;20.68;7.20;;;;;;;9.27;89.89;100868.63;1790953;80;21046;-51
2021/04/19 01:45:10;;;;;;;12.50;7.62;;;;;;;9.26;90.02;100864.67;1789738;80;21264;-51
2021/04/19 01:47:38;;;;;;;12.85;7.83;;;;;;;9.25;90.12;100858.91;1785955;80;21497;-51
2021/04/19 01:50:11;;;;;;;12.37;7.72;;;;;;;9.22;90.32;100858.52;1786004;80;21133;-51
2021/04/19 01:52:38;;;;;;;13.72;8.15;;;;;;;9.18;90.43;100859.53;1785960;80;21203;-51
2021/04/19 01:55:09;;;;;;;16.67;8.00;;;;;;;9.17;90.65;100857.34;1786044;80;21160;-51
2021/04/19 01:57:39;;;;;;;13.22;8.03;;;;;;;9.14;90.84;100854.72;1750589;80;22446;-51
2021/04/19 02:00:09;;;;;;;11.20;7.45;;;;;;;9.15;90.88;100868.50;1764799;81;21525;-51
2021/04/19 02:02:47;;;;;;;13.75;7.37;;;;;;;9.13;91.07;100869.02;1763628;81;21482;-51
2021/04/19 02:05:51;;;;;;;11.25;7.42;;;;;;;9.10;91.19;100863.75;1732745;81;21209;-51
2021/04/19 02:08:36;;;;;;;13.28;7.67;;;;;;;9.10;91.42;100865.09;1764827;81;21066;-50
2021/04/19 02:11:20;;;;;;;12.58;7.67;;;;;;;9.09;91.72;100862.47;1764683;81;21334;-50
2021/04/19 02:14:17;;;;;;;18.73;8.05;;;;;;;9.06;91.83;100866.09;1764587;81;21094;-51
2021/04/19 02:16:51;;;;;;;14.75;7.55;;;;;;;9.03;92.02;100861.69;1764930;81;21573;-51
2021/04/19 02:19:46;;;;;;;13.62;8.43;;;;;;;9.02;92.16;100867.10;1764859;81;21134;-51
2021/04/19 02:22:31;;;;;;;14.03;7.40;;;;;;;9.04;92.04;100870.61;1740971;81;21130;-51
2021/04/19 02:25:19;;;;;;;14.00;8.35;;;;;;;9.04;91.69;100869.27;1811344;79;21649;-50
2021/04/19 02:27:53;;;;;;;12.58;7.35;;;;;;;9.04;91.29;100873.28;1793361;79;21066;-51
2021/04/19 02:30:21;;;;;;;16.82;8.58;;;;;;;9.08;91.19;100869.60;1811295;79;21075;-51
2021/04/19 02:32:51;;;;;;;15.18;8.70;;;;;;;9.10;90.67;100872.25;1811261;79;21078;-51
2021/04/19 02:35:22;;;;;;;15.03;8.98;;;;;;;9.13;90.49;100873.02;1782058;79;21047;-51
2021/04/19 02:37:53;;;;;;;22.93;13.03;;;;;;;9.15;89.96;100861.82;1809839;79;21360;-50
2021/04/19 02:40:21;;;;;;;21.15;12.93;;;;;;;9.17;89.46;100864.02;1811144;79;21502;-50
2021/04/19 02:42:51;;;;;;;25.85;13.98;;;;;;;9.21;89.04;100863.94;1811300;79;21054;-50
2021/04/19 02:45:21;;;;;;;26.37;17.65;;;;;;;9.23;88.91;100866.97;1811051;78;21463;-50
2021/04/19 02:47:50;;;;;;;28.38;16.02;;;;;;;9.23;88.82;100861.61;1809879;79;21050;-50
2021/04/19 02:50:23;;;;;;;20.82;12.60;;;;;;;9.25;88.73;100856.23;1810006;79;21202;-50
2021/04/19 02:52:50;;;;;;;20.68;12.45;;;;;;;9.25;88.49;100858.44;1811290;79;21062;-49
2021/04/19 02:55:22;;;;;;;23.50;12.70;;;;;;;9.27;88.47;100856.59;1811376;79;21236;-50
2021/04/19 02:58:04;;;;;;;24.87;14.30;;;;;;;9.28;88.46;100854.81;1794998;79;21096;-50
2021/04/19 03:00:48;;;;;;;21.75;13.40;;;;;;;9.29;88.44;100853.88;1810901;79;21197;-52
2021/04/19 03:03:25;;;;;;;22.20;13.48;;;;;;;9.30;88.39;100858.31;1765744;81;21201;-52
2021/04/19 03:05:56;;;;;;;28.32;14.50;;;;;;;9.29;88.57;100847.20;1788248;80;21130;-50
2021/04/19 03:08:26;;;;;;;37.08;20.72;;;;;;;9.29;88.68;100856.56;1765696;80;21125;-50
2021/04/19 03:11:08;;;;;;;26.50;15.50;;;;;;;9.29;88.60;100852.55;1788377;80;21189;-50
2021/04/19 03:13:37;;;;;;;24.60;11.53;;;;;;;9.29;88.38;100849.88;1765802;80;21101;-50
2021/04/19 03:16:07;;;;;;;22.95;12.90;;;;;;;9.31;87.82;100850.70;1788150;80;21441;-50
2021/04/19 03:18:37;;;;;;;23.35;12.43;;;;;;;9.32;87.67;100845.77;1765764;81;21153;-52
2021/04/19 03:21:18;;;;;;;26.37;14.70;;;;;;;9.34;87.45;100846.59;1788184;80;21060;-51
2021/04/19 03:23:55;;;;;;;24.70;14.15;;;;;;;9.35;87.75;100847.02;1764548;81;21184;-51
2021/04/19 03:26:28;;;;;;;20.52;11.05;;;;;;;9.35;87.50;100847.48;1786800;80;21130;-51
2021/04/19 03:28:56;;;;;;;22.67;9.80;;;;;;;9.34;87.50;100848.41;1765822;80;21367;-51
2021/04/19 03:31:30;;;;;;;18.42;9.68;;;;;;;9.33;87.56;100844.84;1764466;81;21141;-51
2021/04/19 03:34:03;;;;;;;24.30;11.70;;;;;;;9.34;87.56;100850.61;1765457;81;21061;-50
2021/04/19 03:36:33;;;;;;;21.95;10.05;;;;;;;9.32;87.94;100840.41;1759736;80;21063;-50
2021/04/19 03:39:01;;;;;;;22.10;9.95;;;;;;;9.31;87.89;100842.23;1735751;81;21486;-51
2021/04/19 03:41:31;;;;;;;20.52;11.95;;;;;;;9.32;87.88;100853.80;1735720;81;22095;-50
2021/04/19 03:44:01;;;;;;;31.68;14.80;;;;;;;9.32;87.41;100844.43;1759573;80;21665;-50
2021/04/19 03:46:29;;;;;;;37.78;17.35;;;;;;;9.35;87.59;100842.14;1777526;80;21066;-50
2021/04/19 03:49:09;;;;;;;27.80;14.90;;;;;;;9.35;87.54;100845.67;1790592;80;21170;-51
2021/04/19 03:51:41;;;;;;;32.95;15.78;;;;;;;9.37;86.72;100850.52;1783840;80;21168;-51
2021/04/19 03:54:09;;;;;;;32.65;17.52;;;;;;;9.38;87.15;100853.61;1764586;80;21208;-51
2021/04/19 03:56:37;;;;;;;36.95;18.80;;;;;;;9.39;87.32;100851.83;1789707;80;21553;-51
2021/04/19 03:59:11;;;;;;;35.50;19.30;;;;;;;9.40;87.55;100851.80;1779761;80;21160;-51
2021/04/19 04:01:41;;;;;;;46.68;20.30;;;;;;;9.42;87.67;100850.41;1827990;78;21107;-51
2021/04/19 04:04:10;;;;;;;41.80;17.37;;;;;;;9.42;87.75;100847.28;1828192;78;21040;-50
2021/04/19 04:06:46;;;;;;;36.60;15.48;;;;;;;9.46;87.82;100847.59;1826062;78;21217;-50
2021/04/19 04:09:14;;;;;;;29.63;14.28;;;;;;;9.50;87.90;100843.49;1828028;78;21134;-52
2021/04/19 04:11:43;;;;;;;25.75;12.35;;;;;;;9.50;87.60;100837.66;1827989;78;21043;-51
2021/04/19 04:14:12;;;;;;;28.55;16.30;;;;;;;9.50;87.09;100838.14;1818157;77;21223;-51
2021/04/19 04:16:44;;;;;;;36.38;15.00;;;;;;;9.51;87.27;100831.86;1828068;78;21064;-50
2021/04/19 04:19:13;;;;;;;35.92;16.23;;;;;;;9.55;87.27;100842.44;1828029;78;21361;-51
2021/04/19 04:21:56;;;;;;;34.20;15.50;;;;;;;9.61;87.05;100840.02;1827994;78;21155;-51
2021/04/19 04:24:25;;;;;;;34.45;15.85;;;;;;;9.64;86.77;100842.64;1826026;78;21135;-51
2021/04/19 04:26:53;;;;;;;37.85;14.98;;;;;;;9.68;86.36;100842.95;1798608;78;21174;-51
2021/04/19 04:29:26;;;;;;;22.98;13.20;;;;;;;9.69;86.22;100842.03;1828054;78;21043;-51
2021/04/19 04:32:12;;;;;;;22.48;11.73;;;;;;;9.75;86.14;100853.03;1828131;78;21267;-50
2021/04/19 04:34:42;;;;;;;21.52;11.15;;;;;;;9.78;85.76;100852.04;1828149;78;21563;-51
2021/04/19 04:37:09;;;;;;;20.45;12.58;;;;;;;9.82;85.76;100851.02;1828148;78;21186;-51
2021/04/19 04:39:39;;;;;;;35.00;14.10;;;;;;;9.85;85.67;100854.97;1828007;78;21123;-51
2021/04/19 04:42:13;;;;;;;28.60;13.98;;;;;;;9.89;85.57;100843.23;1828065;78;21103;-51
2021/04/19 04:44:42;;;;;;;32.75;14.23;;;;;;;9.94;85.48;100841.28;1828028;78;21360;-51
2021/04/19 04:47:27;;;;;;;27.30;12.95;;;;;;;10.00;85.08;100839.74;1830062;78;21079;-52
2021/04/19 04:50:15;;;;;;;28.45;15.88;;;;;;;10.03;84.60;100847.68;1831100;78;21158;-52
2021/04/19 04:52:48;;;;;;;25.12;15.15;;;;;;;10.07;84.17;100840.44;1831147;78;21043;-52
2021/04/19 04:55:16;;;;;;;22.70;12.90;;;;;;;10.12;83.80;100845.17;1831334;78;21111;-51
2021/04/19 04:57:44;;;;;;;25.60;15.58;;;;;;;10.16;83.61;100843.29;1828932;78;21424;-51
2021/04/19 05:00:17;;;;;;;25.92;15.98;;;;;;;10.21;83.21;100839.99;1761027;81;21133;-51
2021/04/19 05:02:46;;;;;;;29.65;17.30;;;;;;;10.27;83.12;100840.27;1814508;79;21130;-52
2021/04/19 05:05:16;;;;;;;31.90;21.40;;;;;;;10.35;82.71;100835.52;1814505;79;21547;-51
2021/04/19 05:07:44;;;;;;;28.83;16.60;;;;;;;10.42;81.79;100838.91;1761205;81;21600;-51
2021/04/19 05:10:12;;;;;;;26.73;14.15;;;;;;;10.51;81.46;100832.38;1814456;79;21198;-51
2021/04/19 05:12:40;;;;;;;21.05;12.55;;;;;;;10.57;81.01;100839.75;1814450;79;21059;-50
2021/04/19 05:15:12;;;;;;;26.48;15.20;;;;;;;10.64;80.66;100843.56;1828798;78;21046;-51
2021/04/19 05:17:42;;;;;;;24.98;15.28;;;;;;;10.72;80.27;100838.80;1761211;81;21486;-50
2021/04/19 05:20:13;;;;;;;30.05;15.72;;;;;;;10.79;80.36;100840.37;1814444;78;20924;-52
2021/04/19 05:22:41;;;;;;;24.07;13.00;;;;;;;10.88;80.15;100839.17;1814518;79;21204;-52
2021/04/19 05:25:11;;;;;;;19.40;11.73;;;;;;;10.94;79.59;100840.74;1828835;78;20983;-52
2021/04/19 05:27:38;;;;;;;21.55;11.15;;;;;;;10.98;79.57;100841.06;1761065;81;21054;-51
2021/04/19 05:30:08;;;;;;;23.05;11.80;;;;;;;11.07;79.56;100846.09;1814387;79;21111;-51
2021/04/19 05:32:35;;;;;;;23.22;10.93;;;;;;;11.14;79.34;100850.30;1761067;81;21150;-51
2021/04/19 05:35:05;;;;;;;23.27;9.98;;;;;;;11.21;79.34;100851.45;1814534;79;21174;-51
2021/04/19 05:37:32;;;;;;;18.07;9.68;;;;;;;11.26;78.93;100852.15;1761007;81;21102;-51
2021/04/19 05:40:01;;;;;;;16.42;8.55;;;;;;;11.30;78.68;100854.67;1814448;79;20972;-51
2021/04/19 05:42:30;;;;;;;16.10;9.15;;;;;;;11.31;78.46;100852.40;1828764;78;21058;-51
2021/04/19 05:44:59;;;;;;;12.45;8.63;;;;;;;11.36;78.34;100850.86;1761139;81;21075;-51
2021/04/19 05:47:26;;;;;;;16.25;9.25;;;;;;;11.40;78.39;100847.16;1813855;78;21204;-51
2021/04/19 05:49:54;;;;;;;15.00;9.23;;;;;;;11.42;78.22;100845.30;1813851;79;21146;-51
2021/04/19 05:52:22;;;;;;;22.45;8.73;;;;;;;11.41;78.17;100846.23;1813818;79;21074;-50
2021/04/19 05:54:49;;;;;;;16.65;9.65;;;;;;;11.45;78.61;100853.23;1739756;82;21062;-52
2021/04/19 05:57:42;;;;;;;18.30;9.25;;;;;;;11.51;78.85;100851.24;1821622;78;21114;-52
2021/04/19 06:00:23;;;;;;;16.87;10.10;;;;;;;11.55;78.60;100843.48;1795669;79;21186;-51
2021/04/19 06:03:28;;;;;;;18.75;10.25;;;;;;;11.58;78.38;100837.98;1792312;80;21076;-51
2021/04/19 06:06:19;;;;;;;24.67;10.03;;;;;;;11.61;78.26;100837.41;1799446;79;21118;-51
2021/04/19 06:09:11;;;;;;;15.15;9.93;;;;;;;11.64;77.67;100843.14;1825702;78;21059;-51
2021/04/19 06:11:56;;;;;;;21.25;10.18;;;;;;;11.66;77.61;100847.09;1824246;78;21119;-52
2021/04/19 06:14:44;;;;;;;21.12;11.05;;;;;;;11.64;77.36;100857.91;1825658;78;21564;-51
2021/04/19 06:17:12;;;;;;;15.45;9.45;;;;;;;11.63;77.31;100852.59;1825957;78;21064;-51
2021/04/19 06:19:44;;;;;;;18.90;9.48;;;;;;;11.63;77.26;100853.48;1825947;78;21048;-53
2021/04/19 06:22:18;;;;;;;18.92;10.28;;;;;;;11.65;77.39;100856.09;1825859;78;21171;-51
2021/04/19 06:24:50;;;;;;;17.35;9.73;;;;;;;11.67;77.26;100869.88;1826006;78;21114;-51
2021/04/19 06:27:25;;;;;;;14.07;8.95;;;;;;;11.69;76.96;100873.38;1825970;78;21150;-52
2021/04/19 06:29:54;;;;;;;20.82;10.25;;;;;;;11.70;77.33;100864.39;1825304;78;21124;-51
2021/04/19 06:32:22;;;;;;;24.57;10.50;;;;;;;11.71;77.56;100869.28;1815322;77;21105;-51
2021/04/19 06:34:50;;;;;;;29.10;12.95;;;;;;;11.71;77.25;100860.77;1795121;80;21106;-51
2021/04/19 06:37:20;;;;;;;27.07;11.70;;;;;;;11.67;77.39;100865.85;1795234;80;21052;-51
2021/04/19 06:39:48;;;;;;;28.98;13.80;;;;;;;11.68;77.37;100870.29;1795222;80;21438;-52
2021/04/19 06:42:16;;;;;;;26.95;12.70;;;;;;;11.70;77.36;100865.73;1795308;80;21134;-52
2021/04/19 06:44:44;;;;;;;25.20;12.75;;;;;;;11.75;77.53;100862.88;1795353;80;21179;-51
2021/04/19 06:47:11;;;;;;;34.03;13.90;;;;;;;11.80;77.63;100868.95;1793109;80;21488;-51
2021/04/19 06:49:40;;;;;;;22.00;10.20;;;;;;;11.86;77.68;100870.53;1789467;80;21071;-51
2021/04/19 06:52:08;;;;;;;20.62;10.03;;;;;;;11.89;76.98;100873.09;1789514;80;21606;-51
2021/04/19 06:54:38;;;;;;;21.93;11.12;;;;;;;11.91;76.75;100872.56;1711478;80;21175;-52
2021/04/19 06:57:09;;;;;;;44.15;14.53;;;;;;;11.92;77.36;100872.97;1792193;80;21187;-52
2021/04/19 06:59:36;;;;;;;31.48;17.62;;;;;;;11.93;77.58;100869.34;1764310;81;21715;-52
2021/04/19 07:02:06;;;;;;;33.30;15.08;;;;;;;11.98;77.57;100875.41;1775663;80;21064;-53
2021/04/19 07:04:34;;;;;;;35.28;16.40;;;;;;;12.06;77.30;100872.46;1733073;81;21564;-52
2021/04/19 07:07:02;;;;;;;36.03;12.78;;;;;;;12.12;76.35;100870.00;1776710;80;21016;-52
2021/04/19 07:09:35;;;;;;;23.15;12.75;;;;;;;12.09;76.27;100871.48;1764273;81;21073;-52
2021/04/19 07:12:08;;;;;;;48.95;26.27;;;;;;;12.10;76.35;100881.29;1775722;80;21083;-52
2021/04/19 07:14:37;;;;;;;22.10;13.72;;;;;;;12.12;75.46;100875.38;1763871;81;21105;-52
2021/04/19 07:17:05;;;;;;;20.37;12.60;;;;;;;12.20;74.99;100870.56;1767897;80;21820;-50
2021/04/19 07:19:34;;;;;;;31.42;15.90;;;;;;;12.29;74.72;100872.01;1760805;79;21220;-52
2021/04/19 07:22:03;;;;;;;24.98;13.55;;;;;;;12.40;74.12;100882.33;1762936;80;21137;-51
2021/04/19 07:24:34;;;;;;;26.12;16.70;;;;;;;12.49;73.30;100876.59;1739054;80;21105;-51
2021/04/19 07:27:03;;;;;;;29.63;15.98;;;;;;;12.55;73.12;100881.71;1755658;80;21061;-52
2021/04/19 07:29:32;;;;;;;39.63;23.02;;;;;;;12.61;73.17;100879.25;1747143;80;21292;-51
2021/04/19 07:31:59;;;;;;;29.70;16.02;;;;;;;12.63;72.41;100885.44;1769882;80;21146;-51
2021/04/19 07:34:29;;;;;;;31.20;13.00;;;;;;;12.63;72.16;100887.23;1799389;78;21158;-51
2021/04/19 07:37:16;;;;;;;27.75;12.85;;;;;;;12.63;72.14;100889.92;1789260;80;21123;-51
2021/04/19 07:39:45;;;;;;;26.35;13.43;;;;;;;12.63;71.90;100888.58;1789267;80;21154;-52
2021/04/19 07:42:16;;;;;;;24.47;13.70;;;;;;;12.63;71.82;100880.05;1789401;80;21430;-52
2021/04/19 07:44:51;;;;;;;25.23;13.45;;;;;;;12.65;71.44;100882.20;1725119;81;21575;-52
2021/04/19 07:47:36;;;;;;;;;;;;;;;12.69;71.25;100877.55;1780755;79;21069;-52
2021/04/19 07:50:23;;;;;;;22.67;11.97;;;;;;;12.68;71.30;100874.46;1753023;81;20307;-51
2021/04/19 07:53:04;;;;;;;22.17;11.75;;;;;;;12.72;71.37;100873.42;1772290;80;21124;-52
2021/04/19 07:55:40;;;;;;;27.22;11.90;;;;;;;12.73;71.05;100873.34;1758022;80;21202;-51
2021/04/19 07:58:22;;;;;;;24.98;10.95;;;;;;;12.75;70.99;100866.56;1769907;80;21141;-53
2021/04/19 08:01:03;;;;;;;30.15;12.85;;;;;;;12.81;70.89;100873.02;1759649;80;21184;-52
2021/04/19 08:03:41;;;;;;;25.12;11.05;;;;;;;12.89;70.29;100874.04;1755694;80;21049;-51
2021/04/19 08:06:21;;;;;;;19.75;10.45;;;;;;;12.97;69.43;100875.06;1762040;80;21131;-52
2021/04/19 08:08:50;;;;;;;22.87;9.68;;;;;;;13.04;68.69;100881.92;1773259;80;21193;-51
2021/04/19 08:11:18;;;;;;;34.75;12.20;;;;;;;13.12;68.49;100883.80;1774576;80;21121;-52
2021/04/19 08:13:47;;;;;;;24.60;9.95;;;;;;;13.21;67.64;100889.73;1778312;80;21112;-52
2021/04/19 08:16:22;;;;;;;19.02;9.80;;;;;;;13.24;67.30;100877.48;1784080;80;21184;-51
2021/04/19 08:19:00;;;;;;;27.20;10.10;;;;;;;13.32;66.62;100878.00;1784187;80;21479;-51
2021/04/19 08:21:27;;;;;;;37.30;12.58;;;;;;;13.39;66.02;100881.30;1783925;80;22432;-51
2021/04/19 08:23:56;;;;;;;24.30;11.10;;;;;;;13.51;65.82;100877.22;1784061;80;21141;-51
2021/04/19 08:26:23;;;;;;;25.27;10.28;;;;;;;13.64;65.42;100871.69;1755961;80;21066;-51
2021/04/19 08:28:51;;;;;;;20.57;9.73;;;;;;;13.79;65.17;100874.13;1755907;80;21510;-52
2021/04/19 08:31:19;;;;;;;24.95;9.73;;;;;;;13.91;64.35;100874.03;1784132;80;21141;-52
2021/04/19 08:33:47;;;;;;;23.12;10.13;;;;;;;14.01;63.59;100867.24;1784059;80;21372;-52
2021/04/19 08:36:16;;;;;;;18.45;9.90;;;;;;;14.14;62.38;100865.32;1784079;80;21564;-52
2021/04/19 08:38:45;;;;;;;20.45;9.58;;;;;;;14.23;62.36;100870.25;1783285;80;21132;-51
2021/04/19 08:41:13;;;;;;;17.57;8.35;;;;;;;14.36;62.20;100867.83;1705385;80;21184;-52
2021/04/19 08:43:40;;;;;;;17.77;8.58;;;;;;;14.41;60.64;100877.94;1706336;80;21046;-51
2021/04/19 08:46:11;;;;;;;18.27;10.23;;;;;;;14.37;60.63;100874.11;1748318;80;21370;-52
2021/04/19 08:48:41;;;;;;;16.48;8.85;;;;;;;14.36;61.02;100877.77;1699214;82;21090;-52
2021/04/19 08:51:09;;;;;;;14.40;9.05;;;;;;;14.38;61.25;100882.61;1742349;82;21070;-52
2021/04/19 08:53:37;;;;;;;14.55;10.28;;;;;;;14.39;61.69;100877.61;1742572;82;21138;-52
2021/04/19 08:56:06;;;;;;;19.77;10.28;;;;;;;14.44;62.26;100886.34;1744170;80;21134;-58
2021/04/19 08:58:34;;;;;;;19.85;11.15;;;;;;;14.48;61.79;100879.88;1789883;79;22338;-58
2021/04/19 09:01:02;;;;;;;15.20;9.98;;;;;;;14.44;61.78;100875.55;1789836;80;21112;-57
2021/04/19 09:03:31;;;;;;;12.45;9.43;;;;;;;14.37;61.97;100880.40;1789963;80;22150;-58
2021/04/19 09:05:58;;;;;;;13.13;9.05;;;;;;;14.33;62.74;100877.42;1789861;79;21188;-59
2021/04/19 09:08:26;;;;;;;12.70;9.58;;;;;;;14.30;62.69;100873.08;1738848;80;21130;-59
2021/04/19 09:10:59;;;;;;;14.63;9.65;;;;;;;14.23;63.58;100874.79;1715067;80;22467;-59
2021/04/19 09:13:31;;;;;;;13.32;9.90;;;;;;;14.13;64.26;100879.75;1789841;80;21141;-57
2021/04/19 09:16:21;;;;;;;14.98;10.03;;;;;;;14.01;64.52;100874.47;1789868;80;21119;-57
2021/04/19 09:18:57;;;;;;;12.10;9.00;;;;;;;13.94;64.36;100867.14;1789889;79;21116;-59
2021/04/19 09:21:39;;;;;;;11.28;8.68;;;;;;;13.89;64.78;100878.63;1789951;80;21151;-58
2021/04/19 09:24:11;;;;;;;16.70;10.30;;;;;;;13.82;65.25;100879.87;1789910;80;21362;-58
2021/04/19 09:26:54;;;;;;;13.78;9.78;;;;;;;13.77;65.58;100875.14;1789772;80;21142;-58
2021/04/19 09:29:31;;;;;;;15.98;9.85;;;;;;;13.69;66.17;100877.73;1789791;80;21064;-57
2021/04/19 09:32:05;;;;;;;16.45;9.78;;;;;;;13.63;66.34;100874.44;1789909;80;21048;-59
2021/04/19 09:34:44;;;;;;;12.23;8.95;;;;;;;13.61;67.12;100872.69;1789835;80;21064;-57
2021/04/19 09:37:17;;;;;;;12.93;8.80;;;;;;;13.58;67.41;100864.75;1774019;80;21371;-57
2021/04/19 09:39:50;;;;;;;15.70;9.40;;;;;;;13.60;67.42;100870.08;1783436;79;21161;-58
2021/04/19 09:42:40;;;;;;;12.80;9.73;;;;;;;13.55;67.51;100871.63;1773324;80;21126;-57
2021/04/19 09:45:10;;;;;;;14.15;9.53;;;;;;;13.52;67.78;100876.27;1778219;80;21232;-59
2021/04/19 09:47:50;;;;;;;16.27;9.83;;;;;;;13.41;68.43;100869.53;1787228;80;21177;-58
2021/04/19 09:50:22;;;;;;;14.43;9.83;;;;;;;13.37;68.99;100867.04;1786726;80;21192;-57
2021/04/19 09:52:53;;;;;;;13.98;9.68;;;;;;;13.33;69.10;100867.18;1791707;80;21077;-58
2021/04/19 09:55:21;;;;;;;15.78;10.20;;;;;;;13.34;69.27;100865.34;1794362;79;21162;-57
2021/04/19 09:57:48;;;;;;;17.37;10.25;;;;;;;13.33;69.33;100877.95;1799967;79;21118;-58
2021/04/19 10:00:17;;;;;;;16.10;10.00;;;;;;;13.25;69.79;100873.84;1798560;78;21149;-58
2021/04/19 10:02:44;;;;;;;14.47;10.18;;;;;;;13.15;70.00;100868.88;1800392;79;21198;-58
2021/04/19 10:05:15;;;;;;;14.68;9.00;;;;;;;13.10;70.07;100871.36;1775167;80;21085;-57
2021/04/19 10:07:45;;;;;;;16.07;9.78;;;;;;;13.12;69.73;100868.98;1745608;81;21050;-58
2021/04/19 10:10:15;;;;;;;13.08;9.85;;;;;;;13.15;69.91;100872.03;1782791;80;21056;-60
2021/04/19 10:12:47;;;;;;;14.43;10.10;;;;;;;13.27;69.87;100869.27;1751611;81;21466;-57
2021/04/19 10:15:19;;;;;;;13.58;9.48;;;;;;;13.41;70.02;100869.53;1780679;80;21418;-57
2021/04/19 10:17:49;;;;;;;13.98;9.63;;;;;;;13.59;69.86;100858.88;1774293;80;21657;-58
2021/04/19 10:20:25;;;;;;;17.12;10.08;;;;;;;13.82;69.39;100856.96;1769847;80;21122;-58
2021/04/19 10:23:12;;;;;;;16.23;10.85;;;;;;;13.99;68.93;100847.58;1772005;80;21209;-58
2021/04/19 10:25:54;;;;;;;17.17;11.45;;;;;;;14.06;68.17;100860.30;1775082;80;21062;-57
2021/04/19 10:28:40;;;;;;;19.73;11.38;;;;;;;14.09;67.11;100857.94;1748622;80;22311;-59
2021/04/19 10:31:19;;;;;;;16.40;10.82;;;;;;;14.12;66.60;100861.83;1778078;80;21130;-57
2021/04/19 10:33:55;;;;;;;15.78;10.13;;;;;;;14.22;66.20;100874.39;1779482;80;21134;-58
2021/04/19 10:36:26;;;;;;;16.37;10.08;;;;;;;14.24;65.37;100858.52;1787696;80;21067;-57
2021/04/19 10:39:02;;;;;;;12.10;9.50;;;;;;;14.28;64.96;100857.91;1789591;80;21146;-57
2021/04/19 10:41:36;;;;;;;16.10;9.90;;;;;;;14.31;64.16;100861.80;1788229;80;21854;-57
2021/04/19 10:44:05;;;;;;;16.30;9.65;;;;;;;14.30;64.83;100855.55;1789613;80;21079;-57
2021/04/19 10:46:34;;;;;;;16.77;9.98;;;;;;;14.28;64.48;100857.45;1789455;80;20971;-58
2021/04/19 10:49:03;;;;;;;17.32;9.73;;;;;;;14.19;65.24;100855.19;1789680;80;21059;-57
2021/04/19 10:51:38;;;;;;;12.43;9.63;;;;;;;14.21;65.34;100854.63;1789741;79;21074;-58
2021/04/19 10:54:08;;;;;;;12.37;9.35;;;;;;;14.20;64.94;100855.58;1789939;80;21232;-59
2021/04/19 10:56:39;;;;;;;14.50;9.45;;;;;;;14.29;65.16;100857.84;1799134;78;21134;-58
2021/04/19 10:59:07;;;;;;;13.50;9.28;;;;;;;14.37;64.47;100852.54;1793699;80;21154;-58
2021/04/19 11:01:38;;;;;;;13.28;8.88;;;;;;;14.37;64.15;100857.93;1827997;78;21537;-58
2021/04/19 11:04:08;;;;;;;12.47;7.85;;;;;;;14.37;63.35;100855.23;1795083;80;21138;-57
2021/04/19 11:06:37;;;;;;;12.47;7.60;;;;;;;14.35;62.48;100854.44;1827977;78;21534;-58
2021/04/19 11:09:07;;;;;;;13.53;8.80;;;;;;;14.37;62.11;100852.08;1794660;80;21176;-58
2021/04/19 11:11:39;;;;;;;13.98;8.85;;;;;;;14.48;62.66;100848.84;1828053;78;21223;-58
2021/04/19 11:14:20;;;;;;;12.55;8.53;;;;;;;14.49;62.58;100850.59;1795319;80;21153;-57
2021/04/19 11:16:51;;;;;;;10.13;7.58;;;;;;;14.52;62.67;100843.69;1828015;78;21090;-58
2021/04/19 11:19:44;;;;;;;14.15;8.83;;;;;;;14.52;62.19;100843.69;1789441;80;21360;-58
2021/04/19 11:22:34;;;;;;;11.25;8.23;;;;;;;14.52;62.14;100836.06;1819715;78;21080;-58
2021/04/19 11:25:20;;;;;;;11.90;8.68;;;;;;;14.56;61.57;100835.84;1818114;78;21058;-59
2021/04/19 11:27:51;;;;;;;13.08;8.43;;;;;;;14.59;61.38;100828.94;1819903;78;21550;-58
2021/04/19 11:30:26;;;;;;;14.07;8.80;;;;;;;14.63;61.08;100827.42;1819873;78;21117;-60
2021/04/19 11:33:07;;;;;;;13.00;9.18;;;;;;;14.62;61.18;100825.22;1819859;78;21230;-59
2021/04/19 11:35:40;;;;;;;12.85;9.15;;;;;;;14.59;61.18;100815.44;1819834;78;21161;-59
2021/04/19 11:38:18;;;;;;;12.53;9.10;;;;;;;14.60;60.88;100814.48;1819931;78;21117;-59
2021/04/19 11:40:46;;;;;;;12.25;9.18;;;;;;;14.55;61.12;100812.97;1820029;78;21562;-59